sensor_id;sensor_type;location;lat;lon;timestamp;temperature;humidity
24158;DHT22;12316;50.904;4.200;2022-09-09T00:03:57;16.40;99.90
24158;DHT22;12316;50.904;4.200;2022-09-09T00:06:37;16.50;99.90
24158;DHT22;12316;50.904;4.200;2022-09-09T00:11:39;16.40;99.90
24158;DHT22;12316;50.904;4.200;2022-09-09T00:14:17;16.40;99.90
24158;DHT22;12316;50.904;4.200;2022-09-09T00:16:49;16.30;99.90
24158;DHT22;12316;50.904;4.200;2022-09-09T00:19:36;16.30;99.90
24158;DHT22;12316;50.904;4.200;2022-09-09T00:24:53;16.30;99.90
24158;DHT22;12316;50.904;4.200;2022-09-09T00:27:26;16.20;99.90
24158;DHT22;12316;50.904;4.200;2022-09-09T00:32:50;16.20;99.90
24158;DHT22;12316;50.904;4.200;2022-09-09T00:35:34;16.20;99.90
24158;DHT22;12316;50.904;4.200;2022-09-09T00:38:19;16.20;99.90
24158;DHT22;12316;50.904;4.200;2022-09-09T00:40:52;16.20;99.90
24158;DHT22;12316;50.904;4.200;2022-09-09T00:43:32;16.20;99.90
24158;DHT22;12316;50.904;4.200;2022-09-09T00:48:57;16.30;99.90
24158;DHT22;12316;50.904;4.200;2022-09-09T01:02:30;16.20;99.90
24158;DHT22;12316;50.904;4.200;2022-09-09T01:05:12;16.30;99.90
24158;DHT22;12316;50.904;4.200;2022-09-09T01:07:45;16.30;99.90
24158;DHT22;12316;50.904;4.200;2022-09-09T01:10:25;16.30;99.90
24158;DHT22;12316;50.904;4.200;2022-09-09T01:12:56;16.30;99.90
24158;DHT22;12316;50.904;4.200;2022-09-09T01:15:29;16.30;99.90
24158;DHT22;12316;50.904;4.200;2022-09-09T01:18:14;16.30;99.90
24158;DHT22;12316;50.904;4.200;2022-09-09T01:23:41;16.30;99.90
24158;DHT22;12316;50.904;4.200;2022-09-09T01:26:32;16.30;99.90
24158;DHT22;12316;50.904;4.200;2022-09-09T01:28:59;16.30;99.90
24158;DHT22;12316;50.904;4.200;2022-09-09T01:31:38;16.40;99.90
24158;DHT22;12316;50.904;4.200;2022-09-09T01:34:14;16.30;99.90
24158;DHT22;12316;50.904;4.200;2022-09-09T01:39:24;16.40;99.90
24158;DHT22;12316;50.904;4.200;2022-09-09T01:41:50;16.30;99.90
24158;DHT22;12316;50.904;4.200;2022-09-09T01:44:16;16.30;99.90
24158;DHT22;12316;50.904;4.200;2022-09-09T01:46:43;16.30;99.90
24158;DHT22;12316;50.904;4.200;2022-09-09T01:49:09;16.20;99.90
24158;DHT22;12316;50.904;4.200;2022-09-09T01:51:36;16.20;99.90
24158;DHT22;12316;50.904;4.200;2022-09-09T01:54:03;16.20;99.90
24158;DHT22;12316;50.904;4.200;2022-09-09T02:04:16;16.20;99.90
24158;DHT22;12316;50.904;4.200;2022-09-09T02:06:44;16.20;99.90
24158;DHT22;12316;50.904;4.200;2022-09-09T02:09:13;16.20;99.90
24158;DHT22;12316;50.904;4.200;2022-09-09T02:11:44;16.30;99.90
24158;DHT22;12316;50.904;4.200;2022-09-09T02:14:17;16.30;99.90
24158;DHT22;12316;50.904;4.200;2022-09-09T02:16:57;16.20;99.90
24158;DHT22;12316;50.904;4.200;2022-09-09T02:19:34;16.20;99.90
24158;DHT22;12316;50.904;4.200;2022-09-09T02:22:02;16.20;99.90
24158;DHT22;12316;50.904;4.200;2022-09-09T02:24:35;16.30;99.90
24158;DHT22;12316;50.904;4.200;2022-09-09T02:27:04;16.30;99.90
24158;DHT22;12316;50.904;4.200;2022-09-09T02:29:36;16.30;99.90
24158;DHT22;12316;50.904;4.200;2022-09-09T02:32:06;16.30;99.90
24158;DHT22;12316;50.904;4.200;2022-09-09T02:34:35;16.20;99.90
24158;DHT22;12316;50.904;4.200;2022-09-09T02:37:03;16.20;99.90
24158;DHT22;12316;50.904;4.200;2022-09-09T02:39:31;16.20;99.90
24158;DHT22;12316;50.904;4.200;2022-09-09T02:41:57;16.20;99.90
24158;DHT22;12316;50.904;4.200;2022-09-09T02:44:23;16.30;99.90
24158;DHT22;12316;50.904;4.200;2022-09-09T02:47:05;16.30;99.90
24158;DHT22;12316;50.904;4.200;2022-09-09T02:50:03;16.30;99.90
24158;DHT22;12316;50.904;4.200;2022-09-09T02:55:39;16.30;99.90
24158;DHT22;12316;50.904;4.200;2022-09-09T02:58:07;16.30;99.90
24158;DHT22;12316;50.904;4.200;2022-09-09T03:00:35;16.30;99.90
24158;DHT22;12316;50.904;4.200;2022-09-09T03:03:05;16.20;99.90
24158;DHT22;12316;50.904;4.200;2022-09-09T03:05:31;16.30;99.90
24158;DHT22;12316;50.904;4.200;2022-09-09T03:07:58;16.30;99.90
24158;DHT22;12316;50.904;4.200;2022-09-09T03:10:24;16.30;99.90
24158;DHT22;12316;50.904;4.200;2022-09-09T03:12:50;16.30;99.90
24158;DHT22;12316;50.904;4.200;2022-09-09T03:15:16;16.30;99.90
24158;DHT22;12316;50.904;4.200;2022-09-09T03:17:41;16.30;99.90
24158;DHT22;12316;50.904;4.200;2022-09-09T03:20:08;16.40;99.90
24158;DHT22;12316;50.904;4.200;2022-09-09T03:22:34;16.30;99.90
24158;DHT22;12316;50.904;4.200;2022-09-09T03:25:00;16.30;99.90
24158;DHT22;12316;50.904;4.200;2022-09-09T03:27:26;16.30;99.90
24158;DHT22;12316;50.904;4.200;2022-09-09T03:29:52;16.40;99.90
24158;DHT22;12316;50.904;4.200;2022-09-09T03:32:18;16.40;99.90
24158;DHT22;12316;50.904;4.200;2022-09-09T03:34:45;16.30;99.90
24158;DHT22;12316;50.904;4.200;2022-09-09T03:37:18;16.30;99.90
24158;DHT22;12316;50.904;4.200;2022-09-09T03:39:44;16.30;99.90
24158;DHT22;12316;50.904;4.200;2022-09-09T03:42:12;16.30;99.90
24158;DHT22;12316;50.904;4.200;2022-09-09T03:44:39;16.30;99.90
24158;DHT22;12316;50.904;4.200;2022-09-09T03:47:05;16.30;99.90
24158;DHT22;12316;50.904;4.200;2022-09-09T03:49:32;16.30;99.90
24158;DHT22;12316;50.904;4.200;2022-09-09T03:51:57;16.40;99.90
24158;DHT22;12316;50.904;4.200;2022-09-09T03:54:25;16.40;99.90
24158;DHT22;12316;50.904;4.200;2022-09-09T03:56:50;16.40;99.90
24158;DHT22;12316;50.904;4.200;2022-09-09T03:59:16;16.40;99.90
24158;DHT22;12316;50.904;4.200;2022-09-09T04:01:42;16.50;99.90
24158;DHT22;12316;50.904;4.200;2022-09-09T04:04:07;16.50;99.90
24158;DHT22;12316;50.904;4.200;2022-09-09T04:06:34;16.50;99.90
24158;DHT22;12316;50.904;4.200;2022-09-09T04:09:00;16.50;99.90
24158;DHT22;12316;50.904;4.200;2022-09-09T04:11:27;16.50;99.90
24158;DHT22;12316;50.904;4.200;2022-09-09T04:13:53;16.50;99.90
24158;DHT22;12316;50.904;4.200;2022-09-09T04:16:19;16.50;99.90
24158;DHT22;12316;50.904;4.200;2022-09-09T04:18:45;16.40;99.90
24158;DHT22;12316;50.904;4.200;2022-09-09T04:21:12;16.40;99.90
24158;DHT22;12316;50.904;4.200;2022-09-09T04:23:39;16.40;99.90
24158;DHT22;12316;50.904;4.200;2022-09-09T04:26:05;16.40;99.90
24158;DHT22;12316;50.904;4.200;2022-09-09T04:28:33;16.40;99.90
24158;DHT22;12316;50.904;4.200;2022-09-09T04:31:07;16.30;99.90
24158;DHT22;12316;50.904;4.200;2022-09-09T04:33:33;16.30;99.90
24158;DHT22;12316;50.904;4.200;2022-09-09T04:35:59;16.30;99.90
24158;DHT22;12316;50.904;4.200;2022-09-09T04:38:25;16.30;99.90
24158;DHT22;12316;50.904;4.200;2022-09-09T04:40:51;16.30;99.90
24158;DHT22;12316;50.904;4.200;2022-09-09T04:43:19;16.20;99.90
24158;DHT22;12316;50.904;4.200;2022-09-09T04:45:48;16.20;99.90
24158;DHT22;12316;50.904;4.200;2022-09-09T04:48:14;16.30;99.90
24158;DHT22;12316;50.904;4.200;2022-09-09T04:50:40;16.20;99.90
24158;DHT22;12316;50.904;4.200;2022-09-09T04:53:06;16.20;99.90
24158;DHT22;12316;50.904;4.200;2022-09-09T04:55:32;16.20;99.90
24158;DHT22;12316;50.904;4.200;2022-09-09T04:58:04;16.30;99.90
24158;DHT22;12316;50.904;4.200;2022-09-09T05:00:32;16.30;99.90
24158;DHT22;12316;50.904;4.200;2022-09-09T05:02:57;16.40;99.90
24158;DHT22;12316;50.904;4.200;2022-09-09T05:05:23;16.40;99.90
24158;DHT22;12316;50.904;4.200;2022-09-09T05:07:49;16.40;99.90
24158;DHT22;12316;50.904;4.200;2022-09-09T05:10:14;16.40;99.90
24158;DHT22;12316;50.904;4.200;2022-09-09T05:12:51;16.50;99.90
24158;DHT22;12316;50.904;4.200;2022-09-09T05:15:17;16.60;99.90
24158;DHT22;12316;50.904;4.200;2022-09-09T05:17:42;16.70;99.90
24158;DHT22;12316;50.904;4.200;2022-09-09T05:20:08;16.60;99.90
24158;DHT22;12316;50.904;4.200;2022-09-09T05:22:34;16.60;99.90
24158;DHT22;12316;50.904;4.200;2022-09-09T05:24:59;16.70;99.90
24158;DHT22;12316;50.904;4.200;2022-09-09T05:27:26;16.70;99.90
24158;DHT22;12316;50.904;4.200;2022-09-09T05:29:51;16.70;99.90
24158;DHT22;12316;50.904;4.200;2022-09-09T05:32:17;16.80;99.90
24158;DHT22;12316;50.904;4.200;2022-09-09T05:34:43;16.80;99.90
24158;DHT22;12316;50.904;4.200;2022-09-09T05:37:08;16.90;99.90
24158;DHT22;12316;50.904;4.200;2022-09-09T05:39:34;16.90;99.90
24158;DHT22;12316;50.904;4.200;2022-09-09T05:42:03;16.80;99.90
24158;DHT22;12316;50.904;4.200;2022-09-09T05:44:29;16.80;99.90
24158;DHT22;12316;50.904;4.200;2022-09-09T05:46:55;16.80;99.90
24158;DHT22;12316;50.904;4.200;2022-09-09T05:49:21;16.80;99.90
24158;DHT22;12316;50.904;4.200;2022-09-09T05:51:47;16.90;99.90
24158;DHT22;12316;50.904;4.200;2022-09-09T05:54:13;16.80;99.90
24158;DHT22;12316;50.904;4.200;2022-09-09T05:56:41;16.80;99.90
24158;DHT22;12316;50.904;4.200;2022-09-09T05:59:08;16.80;99.90
24158;DHT22;12316;50.904;4.200;2022-09-09T06:01:36;16.80;99.90
24158;DHT22;12316;50.904;4.200;2022-09-09T06:04:05;16.80;99.90
24158;DHT22;12316;50.904;4.200;2022-09-09T06:06:34;17.00;99.90
24158;DHT22;12316;50.904;4.200;2022-09-09T06:09:03;17.20;99.90
24158;DHT22;12316;50.904;4.200;2022-09-09T06:11:32;17.20;99.90
24158;DHT22;12316;50.904;4.200;2022-09-09T06:14:03;17.30;99.90
24158;DHT22;12316;50.904;4.200;2022-09-09T06:16:29;17.40;99.90
24158;DHT22;12316;50.904;4.200;2022-09-09T06:18:57;17.40;99.90
24158;DHT22;12316;50.904;4.200;2022-09-09T06:21:25;17.40;99.90
24158;DHT22;12316;50.904;4.200;2022-09-09T06:23:51;17.50;99.90
24158;DHT22;12316;50.904;4.200;2022-09-09T06:26:21;17.50;99.90
24158;DHT22;12316;50.904;4.200;2022-09-09T06:28:48;17.50;99.90
24158;DHT22;12316;50.904;4.200;2022-09-09T06:31:17;17.50;99.90
24158;DHT22;12316;50.904;4.200;2022-09-09T06:33:43;17.60;99.90
24158;DHT22;12316;50.904;4.200;2022-09-09T06:36:14;17.60;99.90
24158;DHT22;12316;50.904;4.200;2022-09-09T06:38:42;17.60;99.90
24158;DHT22;12316;50.904;4.200;2022-09-09T06:41:09;17.70;99.90
24158;DHT22;12316;50.904;4.200;2022-09-09T06:43:35;17.70;99.90
24158;DHT22;12316;50.904;4.200;2022-09-09T06:46:03;17.70;99.90
24158;DHT22;12316;50.904;4.200;2022-09-09T06:48:29;17.70;99.90
24158;DHT22;12316;50.904;4.200;2022-09-09T06:53:27;17.90;99.90
24158;DHT22;12316;50.904;4.200;2022-09-09T06:55:53;18.00;99.90
24158;DHT22;12316;50.904;4.200;2022-09-09T06:58:18;18.10;99.90
24158;DHT22;12316;50.904;4.200;2022-09-09T07:00:44;18.10;99.90
24158;DHT22;12316;50.904;4.200;2022-09-09T07:03:10;18.00;99.90
24158;DHT22;12316;50.904;4.200;2022-09-09T07:05:36;17.90;99.90
24158;DHT22;12316;50.904;4.200;2022-09-09T07:08:02;17.90;99.90
24158;DHT22;12316;50.904;4.200;2022-09-09T07:10:28;18.00;99.90
24158;DHT22;12316;50.904;4.200;2022-09-09T07:12:53;18.00;99.90
24158;DHT22;12316;50.904;4.200;2022-09-09T07:15:20;18.10;99.90
24158;DHT22;12316;50.904;4.200;2022-09-09T07:17:46;18.20;99.90
24158;DHT22;12316;50.904;4.200;2022-09-09T07:20:13;18.20;99.90
24158;DHT22;12316;50.904;4.200;2022-09-09T07:22:40;18.30;99.90
24158;DHT22;12316;50.904;4.200;2022-09-09T07:25:06;18.30;99.90
24158;DHT22;12316;50.904;4.200;2022-09-09T07:27:32;18.30;99.90
24158;DHT22;12316;50.904;4.200;2022-09-09T07:29:57;18.30;99.90
24158;DHT22;12316;50.904;4.200;2022-09-09T07:32:23;18.30;99.90
24158;DHT22;12316;50.904;4.200;2022-09-09T07:34:51;18.20;99.90
24158;DHT22;12316;50.904;4.200;2022-09-09T07:37:16;18.20;99.90
24158;DHT22;12316;50.904;4.200;2022-09-09T07:39:43;18.30;99.90
24158;DHT22;12316;50.904;4.200;2022-09-09T07:42:09;18.20;99.90
24158;DHT22;12316;50.904;4.200;2022-09-09T07:44:37;18.20;99.90
24158;DHT22;12316;50.904;4.200;2022-09-09T07:47:05;18.20;99.90
24158;DHT22;12316;50.904;4.200;2022-09-09T07:49:32;18.20;99.90
24158;DHT22;12316;50.904;4.200;2022-09-09T07:51:57;18.30;99.90
24158;DHT22;12316;50.904;4.200;2022-09-09T07:54:23;18.40;99.90
24158;DHT22;12316;50.904;4.200;2022-09-09T07:56:49;18.50;99.90
24158;DHT22;12316;50.904;4.200;2022-09-09T07:59:16;18.50;99.90
24158;DHT22;12316;50.904;4.200;2022-09-09T08:01:44;18.70;99.90
24158;DHT22;12316;50.904;4.200;2022-09-09T08:04:16;18.90;99.90
24158;DHT22;12316;50.904;4.200;2022-09-09T08:07:05;18.90;99.90
24158;DHT22;12316;50.904;4.200;2022-09-09T08:09:31;19.00;99.90
24158;DHT22;12316;50.904;4.200;2022-09-09T08:11:57;19.10;99.90
24158;DHT22;12316;50.904;4.200;2022-09-09T08:14:24;19.10;99.90
24158;DHT22;12316;50.904;4.200;2022-09-09T08:16:51;19.10;99.90
24158;DHT22;12316;50.904;4.200;2022-09-09T08:19:18;19.00;99.90
24158;DHT22;12316;50.904;4.200;2022-09-09T08:21:44;19.10;99.90
24158;DHT22;12316;50.904;4.200;2022-09-09T08:24:11;19.30;99.90
24158;DHT22;12316;50.904;4.200;2022-09-09T08:26:40;19.50;99.90
24158;DHT22;12316;50.904;4.200;2022-09-09T08:29:08;19.30;99.90
24158;DHT22;12316;50.904;4.200;2022-09-09T08:31:39;19.20;99.90
24158;DHT22;12316;50.904;4.200;2022-09-09T08:34:05;19.00;99.90
24158;DHT22;12316;50.904;4.200;2022-09-09T08:36:34;18.90;99.90
24158;DHT22;12316;50.904;4.200;2022-09-09T08:39:00;18.70;99.90
24158;DHT22;12316;50.904;4.200;2022-09-09T08:47:15;18.70;99.90
24158;DHT22;12316;50.904;4.200;2022-09-09T08:58:49;18.60;99.90
24158;DHT22;12316;50.904;4.200;2022-09-09T09:09:07;18.50;99.90
24158;DHT22;12316;50.904;4.200;2022-09-09T09:11:51;18.40;99.90
24158;DHT22;12316;50.904;4.200;2022-09-09T09:14:38;18.50;99.90
24158;DHT22;12316;50.904;4.200;2022-09-09T09:17:16;18.40;99.90
24158;DHT22;12316;50.904;4.200;2022-09-09T09:19:43;18.50;99.90
24158;DHT22;12316;50.904;4.200;2022-09-09T09:22:23;18.60;99.90
24158;DHT22;12316;50.904;4.200;2022-09-09T09:28:02;18.70;99.90
24158;DHT22;12316;50.904;4.200;2022-09-09T09:30:44;18.70;99.90
24158;DHT22;12316;50.904;4.200;2022-09-09T09:33:35;18.80;99.90
24158;DHT22;12316;50.904;4.200;2022-09-09T09:36:05;18.90;99.90
24158;DHT22;12316;50.904;4.200;2022-09-09T09:38:35;18.90;99.90
24158;DHT22;12316;50.904;4.200;2022-09-09T09:41:01;19.00;99.90
24158;DHT22;12316;50.904;4.200;2022-09-09T09:43:28;18.80;99.90
24158;DHT22;12316;50.904;4.200;2022-09-09T09:45:55;18.80;99.90
24158;DHT22;12316;50.904;4.200;2022-09-09T09:48:21;18.70;99.90
24158;DHT22;12316;50.904;4.200;2022-09-09T09:50:59;18.90;99.90
24158;DHT22;12316;50.904;4.200;2022-09-09T09:53:34;18.90;99.90
24158;DHT22;12316;50.904;4.200;2022-09-09T09:56:10;18.90;99.90
24158;DHT22;12316;50.904;4.200;2022-09-09T10:01:38;18.80;99.90
24158;DHT22;12316;50.904;4.200;2022-09-09T10:04:15;18.80;99.90
24158;DHT22;12316;50.904;4.200;2022-09-09T10:06:42;18.80;99.90
24158;DHT22;12316;50.904;4.200;2022-09-09T10:09:26;18.90;99.90
24158;DHT22;12316;50.904;4.200;2022-09-09T10:14:57;19.10;99.90
24158;DHT22;12316;50.904;4.200;2022-09-09T10:17:50;19.10;99.90
24158;DHT22;12316;50.904;4.200;2022-09-09T10:31:10;19.50;99.90
24158;DHT22;12316;50.904;4.200;2022-09-09T10:36:26;20.00;99.90
24158;DHT22;12316;50.904;4.200;2022-09-09T10:39:05;20.10;99.90
24158;DHT22;12316;50.904;4.200;2022-09-09T10:41:55;20.00;99.90
24158;DHT22;12316;50.904;4.200;2022-09-09T10:44:39;20.10;99.90
24158;DHT22;12316;50.904;4.200;2022-09-09T10:47:23;20.10;99.90
24158;DHT22;12316;50.904;4.200;2022-09-09T10:55:20;20.00;99.90
24158;DHT22;12316;50.904;4.200;2022-09-09T10:57:50;20.00;99.90
24158;DHT22;12316;50.904;4.200;2022-09-09T11:00:20;20.10;99.90
24158;DHT22;12316;50.904;4.200;2022-09-09T11:02:58;20.40;99.90
24158;DHT22;12316;50.904;4.200;2022-09-09T11:08:06;20.60;99.90
24158;DHT22;12316;50.904;4.200;2022-09-09T11:13:16;20.70;99.90
24158;DHT22;12316;50.904;4.200;2022-09-09T11:15:46;20.80;99.90
24158;DHT22;12316;50.904;4.200;2022-09-09T11:18:22;21.00;99.90
24158;DHT22;12316;50.904;4.200;2022-09-09T11:20:52;21.10;99.90
24158;DHT22;12316;50.904;4.200;2022-09-09T11:23:29;21.10;99.90
24158;DHT22;12316;50.904;4.200;2022-09-09T11:26:03;21.20;99.90
24158;DHT22;12316;50.904;4.200;2022-09-09T11:37:06;21.00;99.90
24158;DHT22;12316;50.904;4.200;2022-09-09T11:42:18;20.80;99.90
24158;DHT22;12316;50.904;4.200;2022-09-09T11:44:45;20.80;99.90
24158;DHT22;12316;50.904;4.200;2022-09-09T11:47:28;20.90;99.90
24158;DHT22;12316;50.904;4.200;2022-09-09T11:50:26;20.90;99.90
24158;DHT22;12316;50.904;4.200;2022-09-09T11:55:39;20.90;99.90
24158;DHT22;12316;50.904;4.200;2022-09-09T12:03:04;20.80;99.90
24158;DHT22;12316;50.904;4.200;2022-09-09T12:05:42;20.80;99.90
24158;DHT22;12316;50.904;4.200;2022-09-09T12:08:11;20.80;99.90
24158;DHT22;12316;50.904;4.200;2022-09-09T12:10:41;20.90;99.90
24158;DHT22;12316;50.904;4.200;2022-09-09T12:13:20;21.00;99.90
24158;DHT22;12316;50.904;4.200;2022-09-09T12:15:53;21.00;99.90
24158;DHT22;12316;50.904;4.200;2022-09-09T12:18:38;21.10;99.90
24158;DHT22;12316;50.904;4.200;2022-09-09T12:23:56;21.00;99.90
24158;DHT22;12316;50.904;4.200;2022-09-09T12:34:35;21.30;99.90
24158;DHT22;12316;50.904;4.200;2022-09-09T12:37:27;21.40;99.90
24158;DHT22;12316;50.904;4.200;2022-09-09T12:40:02;21.40;99.90
24158;DHT22;12316;50.904;4.200;2022-09-09T12:42:29;21.40;99.90
24158;DHT22;12316;50.904;4.200;2022-09-09T12:45:00;21.40;99.90
24158;DHT22;12316;50.904;4.200;2022-09-09T12:50:29;21.50;99.90
24158;DHT22;12316;50.904;4.200;2022-09-09T12:53:06;21.80;99.90
24158;DHT22;12316;50.904;4.200;2022-09-09T12:55:38;22.00;99.90
24158;DHT22;12316;50.904;4.200;2022-09-09T12:58:05;21.80;99.90
24158;DHT22;12316;50.904;4.200;2022-09-09T13:00:33;21.70;99.90
24158;DHT22;12316;50.904;4.200;2022-09-09T13:03:01;21.70;99.90
24158;DHT22;12316;50.904;4.200;2022-09-09T13:05:35;21.70;99.90
24158;DHT22;12316;50.904;4.200;2022-09-09T13:08:02;21.70;99.90
24158;DHT22;12316;50.904;4.200;2022-09-09T13:10:34;21.70;99.90
24158;DHT22;12316;50.904;4.200;2022-09-09T13:13:01;21.60;99.90
24158;DHT22;12316;50.904;4.200;2022-09-09T13:15:29;21.60;99.90
24158;DHT22;12316;50.904;4.200;2022-09-09T13:18:02;21.80;99.90
24158;DHT22;12316;50.904;4.200;2022-09-09T13:20:28;21.80;99.90
24158;DHT22;12316;50.904;4.200;2022-09-09T13:22:55;21.90;99.90
24158;DHT22;12316;50.904;4.200;2022-09-09T13:25:26;21.90;99.90
24158;DHT22;12316;50.904;4.200;2022-09-09T13:28:01;22.10;99.90
24158;DHT22;12316;50.904;4.200;2022-09-09T13:30:35;22.20;99.90
24158;DHT22;12316;50.904;4.200;2022-09-09T13:33:21;22.10;99.90
24158;DHT22;12316;50.904;4.200;2022-09-09T13:35:56;22.20;99.90
24158;DHT22;12316;50.904;4.200;2022-09-09T13:38:23;22.40;99.90
24158;DHT22;12316;50.904;4.200;2022-09-09T13:43:52;22.60;99.90
24158;DHT22;12316;50.904;4.200;2022-09-09T13:49:17;22.50;99.90
24158;DHT22;12316;50.904;4.200;2022-09-09T13:51:48;22.40;99.90
24158;DHT22;12316;50.904;4.200;2022-09-09T13:54:18;22.00;99.90
24158;DHT22;12316;50.904;4.200;2022-09-09T13:56:45;22.00;99.90
24158;DHT22;12316;50.904;4.200;2022-09-09T13:59:13;21.80;99.90
24158;DHT22;12316;50.904;4.200;2022-09-09T14:01:39;21.90;99.90
24158;DHT22;12316;50.904;4.200;2022-09-09T14:04:05;21.90;99.90
24158;DHT22;12316;50.904;4.200;2022-09-09T14:06:34;21.80;99.90
24158;DHT22;12316;50.904;4.200;2022-09-09T14:09:02;21.90;99.90
24158;DHT22;12316;50.904;4.200;2022-09-09T14:11:28;22.20;99.90
24158;DHT22;12316;50.904;4.200;2022-09-09T14:13:53;22.30;99.90
24158;DHT22;12316;50.904;4.200;2022-09-09T14:16:19;22.20;99.90
24158;DHT22;12316;50.904;4.200;2022-09-09T14:18:47;22.20;99.90
24158;DHT22;12316;50.904;4.200;2022-09-09T14:21:15;22.30;99.90
24158;DHT22;12316;50.904;4.200;2022-09-09T14:23:41;22.60;99.90
24158;DHT22;12316;50.904;4.200;2022-09-09T14:26:07;22.80;99.90
24158;DHT22;12316;50.904;4.200;2022-09-09T14:28:35;22.80;99.90
24158;DHT22;12316;50.904;4.200;2022-09-09T14:31:04;22.90;99.90
24158;DHT22;12316;50.904;4.200;2022-09-09T14:33:30;22.90;99.90
24158;DHT22;12316;50.904;4.200;2022-09-09T14:36:00;23.00;99.90
24158;DHT22;12316;50.904;4.200;2022-09-09T14:38:29;23.10;99.90
24158;DHT22;12316;50.904;4.200;2022-09-09T14:40:55;23.20;99.90
24158;DHT22;12316;50.904;4.200;2022-09-09T14:43:21;23.30;99.90
24158;DHT22;12316;50.904;4.200;2022-09-09T14:45:47;23.20;99.90
24158;DHT22;12316;50.904;4.200;2022-09-09T14:48:17;23.40;99.90
24158;DHT22;12316;50.904;4.200;2022-09-09T14:50:42;23.20;99.90
24158;DHT22;12316;50.904;4.200;2022-09-09T14:53:08;23.20;99.90
24158;DHT22;12316;50.904;4.200;2022-09-09T14:55:36;23.30;99.90
24158;DHT22;12316;50.904;4.200;2022-09-09T14:58:03;23.50;99.90
24158;DHT22;12316;50.904;4.200;2022-09-09T15:00:30;23.50;99.90
24158;DHT22;12316;50.904;4.200;2022-09-09T15:02:56;23.70;99.90
24158;DHT22;12316;50.904;4.200;2022-09-09T15:05:22;23.60;99.90
24158;DHT22;12316;50.904;4.200;2022-09-09T15:07:49;23.50;99.90
24158;DHT22;12316;50.904;4.200;2022-09-09T15:10:15;23.50;99.90
24158;DHT22;12316;50.904;4.200;2022-09-09T15:12:42;23.10;99.90
24158;DHT22;12316;50.904;4.200;2022-09-09T15:15:10;23.00;99.90
24158;DHT22;12316;50.904;4.200;2022-09-09T15:17:36;23.10;99.90
24158;DHT22;12316;50.904;4.200;2022-09-09T15:20:04;22.90;99.90
24158;DHT22;12316;50.904;4.200;2022-09-09T15:22:31;22.90;99.90
24158;DHT22;12316;50.904;4.200;2022-09-09T15:24:57;22.90;99.90
24158;DHT22;12316;50.904;4.200;2022-09-09T15:27:25;22.80;99.90
24158;DHT22;12316;50.904;4.200;2022-09-09T15:29:51;22.80;99.90
24158;DHT22;12316;50.904;4.200;2022-09-09T15:32:17;22.90;99.90
24158;DHT22;12316;50.904;4.200;2022-09-09T15:34:43;23.00;99.90
24158;DHT22;12316;50.904;4.200;2022-09-09T15:37:13;23.00;99.90
24158;DHT22;12316;50.904;4.200;2022-09-09T15:39:40;23.00;99.90
24158;DHT22;12316;50.904;4.200;2022-09-09T15:42:06;23.00;99.90
24158;DHT22;12316;50.904;4.200;2022-09-09T15:44:40;23.00;99.90
24158;DHT22;12316;50.904;4.200;2022-09-09T15:47:07;22.90;99.90
24158;DHT22;12316;50.904;4.200;2022-09-09T15:49:33;22.90;99.90
24158;DHT22;12316;50.904;4.200;2022-09-09T15:51:59;22.80;99.90
24158;DHT22;12316;50.904;4.200;2022-09-09T15:54:32;22.70;99.90
24158;DHT22;12316;50.904;4.200;2022-09-09T15:57:00;22.70;99.90
24158;DHT22;12316;50.904;4.200;2022-09-09T15:59:28;22.80;99.90
24158;DHT22;12316;50.904;4.200;2022-09-09T16:01:55;22.50;99.90
24158;DHT22;12316;50.904;4.200;2022-09-09T16:04:21;22.40;99.90
24158;DHT22;12316;50.904;4.200;2022-09-09T16:06:58;22.20;99.90
24158;DHT22;12316;50.904;4.200;2022-09-09T16:09:26;22.00;99.90
24158;DHT22;12316;50.904;4.200;2022-09-09T16:11:52;21.30;99.90
24158;DHT22;12316;50.904;4.200;2022-09-09T16:14:19;20.90;99.90
24158;DHT22;12316;50.904;4.200;2022-09-09T16:16:46;20.60;99.90
24158;DHT22;12316;50.904;4.200;2022-09-09T16:19:12;20.30;99.90
24158;DHT22;12316;50.904;4.200;2022-09-09T16:21:41;20.10;99.90
24158;DHT22;12316;50.904;4.200;2022-09-09T16:24:09;20.00;99.90
24158;DHT22;12316;50.904;4.200;2022-09-09T16:26:37;20.00;99.90
24158;DHT22;12316;50.904;4.200;2022-09-09T16:29:03;20.00;99.90
24158;DHT22;12316;50.904;4.200;2022-09-09T16:31:30;19.70;99.90
24158;DHT22;12316;50.904;4.200;2022-09-09T16:33:57;19.90;99.90
24158;DHT22;12316;50.904;4.200;2022-09-09T16:36:27;20.00;99.90
24158;DHT22;12316;50.904;4.200;2022-09-09T16:38:54;20.20;99.90
24158;DHT22;12316;50.904;4.200;2022-09-09T16:41:20;20.30;99.90
24158;DHT22;12316;50.904;4.200;2022-09-09T16:43:52;20.50;99.90
24158;DHT22;12316;50.904;4.200;2022-09-09T16:46:19;20.50;99.90
24158;DHT22;12316;50.904;4.200;2022-09-09T16:48:46;20.60;99.90
24158;DHT22;12316;50.904;4.200;2022-09-09T16:51:17;20.50;99.90
24158;DHT22;12316;50.904;4.200;2022-09-09T16:53:43;20.50;99.90
24158;DHT22;12316;50.904;4.200;2022-09-09T16:56:18;20.50;99.90
24158;DHT22;12316;50.904;4.200;2022-09-09T16:58:53;20.40;99.90
24158;DHT22;12316;50.904;4.200;2022-09-09T17:01:21;20.60;99.90
24158;DHT22;12316;50.904;4.200;2022-09-09T17:03:51;20.70;99.90
24158;DHT22;12316;50.904;4.200;2022-09-09T17:06:17;20.80;99.90
24158;DHT22;12316;50.904;4.200;2022-09-09T17:08:43;20.90;99.90
24158;DHT22;12316;50.904;4.200;2022-09-09T17:11:16;20.90;99.90
24158;DHT22;12316;50.904;4.200;2022-09-09T17:13:44;20.90;99.90
24158;DHT22;12316;50.904;4.200;2022-09-09T17:16:10;20.90;99.90
24158;DHT22;12316;50.904;4.200;2022-09-09T17:18:37;20.90;99.90
24158;DHT22;12316;50.904;4.200;2022-09-09T17:21:12;20.90;99.90
24158;DHT22;12316;50.904;4.200;2022-09-09T17:23:40;20.90;99.90
24158;DHT22;12316;50.904;4.200;2022-09-09T17:26:07;20.90;99.90
24158;DHT22;12316;50.904;4.200;2022-09-09T17:28:34;20.80;99.90
24158;DHT22;12316;50.904;4.200;2022-09-09T17:31:00;20.70;99.90
24158;DHT22;12316;50.904;4.200;2022-09-09T17:33:28;20.70;99.90
24158;DHT22;12316;50.904;4.200;2022-09-09T17:36:10;20.60;99.90
24158;DHT22;12316;50.904;4.200;2022-09-09T17:38:37;20.50;99.90
24158;DHT22;12316;50.904;4.200;2022-09-09T17:43:38;20.20;99.90
24158;DHT22;12316;50.904;4.200;2022-09-09T17:46:24;20.20;99.90
24158;DHT22;12316;50.904;4.200;2022-09-09T17:48:54;20.10;99.90
24158;DHT22;12316;50.904;4.200;2022-09-09T17:51:22;19.90;99.90
24158;DHT22;12316;50.904;4.200;2022-09-09T17:53:54;19.90;99.90
24158;DHT22;12316;50.904;4.200;2022-09-09T17:56:22;19.90;99.90
24158;DHT22;12316;50.904;4.200;2022-09-09T17:58:49;19.70;99.90
24158;DHT22;12316;50.904;4.200;2022-09-09T18:01:21;19.60;99.90
24158;DHT22;12316;50.904;4.200;2022-09-09T18:03:48;19.50;99.90
24158;DHT22;12316;50.904;4.200;2022-09-09T18:06:16;19.40;99.90